sensor_id;sensor_type;location;lat;lon;timestamp;temperature;humidity
23259;DHT22;11798;51.528;7.240;2023-04-03T00:00:40;2.30;99.90
23259;DHT22;11798;51.528;7.240;2023-04-03T00:03:05;2.30;99.90
23259;DHT22;11798;51.528;7.240;2023-04-03T00:05:31;2.30;99.90
23259;DHT22;11798;51.528;7.240;2023-04-03T00:07:56;2.30;99.90
23259;DHT22;11798;51.528;7.240;2023-04-03T00:10:22;2.30;99.90
23259;DHT22;11798;51.528;7.240;2023-04-03T00:12:47;2.30;99.90
23259;DHT22;11798;51.528;7.240;2023-04-03T00:15:13;2.20;99.90
23259;DHT22;11798;51.528;7.240;2023-04-03T00:17:39;2.20;99.90
23259;DHT22;11798;51.528;7.240;2023-04-03T00:20:04;2.20;99.90
23259;DHT22;11798;51.528;7.240;2023-04-03T00:22:30;2.20;99.90
23259;DHT22;11798;51.528;7.240;2023-04-03T00:24:56;2.20;99.90
23259;DHT22;11798;51.528;7.240;2023-04-03T00:27:22;2.20;99.90
23259;DHT22;11798;51.528;7.240;2023-04-03T00:29:47;2.20;99.90
23259;DHT22;11798;51.528;7.240;2023-04-03T00:32:13;2.20;99.90
23259;DHT22;11798;51.528;7.240;2023-04-03T00:34:38;2.20;99.90
23259;DHT22;11798;51.528;7.240;2023-04-03T00:37:04;2.20;99.90
23259;DHT22;11798;51.528;7.240;2023-04-03T00:39:30;2.20;99.90
23259;DHT22;11798;51.528;7.240;2023-04-03T00:41:55;2.20;99.90
23259;DHT22;11798;51.528;7.240;2023-04-03T00:47:07;2.20;99.90
23259;DHT22;11798;51.528;7.240;2023-04-03T00:49:33;2.20;99.90
23259;DHT22;11798;51.528;7.240;2023-04-03T00:52:00;2.10;99.90
23259;DHT22;11798;51.528;7.240;2023-04-03T00:54:26;2.10;99.90
23259;DHT22;11798;51.528;7.240;2023-04-03T00:56:52;2.00;99.90
23259;DHT22;11798;51.528;7.240;2023-04-03T00:59:22;2.00;99.90
23259;DHT22;11798;51.528;7.240;2023-04-03T01:01:51;2.10;99.90
23259;DHT22;11798;51.528;7.240;2023-04-03T01:06:53;2.10;99.90
23259;DHT22;11798;51.528;7.240;2023-04-03T01:09:21;2.00;99.90
23259;DHT22;11798;51.528;7.240;2023-04-03T01:11:47;2.10;99.90
23259;DHT22;11798;51.528;7.240;2023-04-03T01:14:12;2.00;99.90
23259;DHT22;11798;51.528;7.240;2023-04-03T01:16:38;2.10;99.90
23259;DHT22;11798;51.528;7.240;2023-04-03T01:19:05;2.10;99.90
23259;DHT22;11798;51.528;7.240;2023-04-03T01:24:22;2.10;99.90
23259;DHT22;11798;51.528;7.240;2023-04-03T01:26:50;2.10;99.90
23259;DHT22;11798;51.528;7.240;2023-04-03T01:29:16;2.10;99.90
23259;DHT22;11798;51.528;7.240;2023-04-03T01:31:49;2.00;99.90
23259;DHT22;11798;51.528;7.240;2023-04-03T01:34:14;2.00;99.90
23259;DHT22;11798;51.528;7.240;2023-04-03T01:36:40;2.00;99.90
23259;DHT22;11798;51.528;7.240;2023-04-03T01:39:06;2.00;99.90
23259;DHT22;11798;51.528;7.240;2023-04-03T01:41:32;2.00;99.90
23259;DHT22;11798;51.528;7.240;2023-04-03T01:43:57;2.00;99.90
23259;DHT22;11798;51.528;7.240;2023-04-03T01:46:23;2.00;99.90
23259;DHT22;11798;51.528;7.240;2023-04-03T01:48:48;2.00;99.90
23259;DHT22;11798;51.528;7.240;2023-04-03T01:51:14;2.00;99.90
23259;DHT22;11798;51.528;7.240;2023-04-03T01:53:40;2.00;99.90
23259;DHT22;11798;51.528;7.240;2023-04-03T01:56:06;2.00;99.90
23259;DHT22;11798;51.528;7.240;2023-04-03T01:58:31;2.00;99.90
23259;DHT22;11798;51.528;7.240;2023-04-03T02:00:57;1.90;99.90
23259;DHT22;11798;51.528;7.240;2023-04-03T02:03:22;1.90;99.90
23259;DHT22;11798;51.528;7.240;2023-04-03T02:05:49;1.90;99.90
23259;DHT22;11798;51.528;7.240;2023-04-03T02:08:14;1.90;99.90
23259;DHT22;11798;51.528;7.240;2023-04-03T02:10:43;1.90;99.90
23259;DHT22;11798;51.528;7.240;2023-04-03T02:13:09;1.90;99.90
23259;DHT22;11798;51.528;7.240;2023-04-03T02:15:37;1.90;99.90
23259;DHT22;11798;51.528;7.240;2023-04-03T02:18:02;1.90;99.90
23259;DHT22;11798;51.528;7.240;2023-04-03T02:20:28;1.90;99.90
23259;DHT22;11798;51.528;7.240;2023-04-03T02:22:53;1.90;99.90
23259;DHT22;11798;51.528;7.240;2023-04-03T02:25:19;1.90;99.90
23259;DHT22;11798;51.528;7.240;2023-04-03T02:27:45;2.00;99.90
23259;DHT22;11798;51.528;7.240;2023-04-03T02:30:11;1.90;99.90
23259;DHT22;11798;51.528;7.240;2023-04-03T02:32:36;1.90;99.90
23259;DHT22;11798;51.528;7.240;2023-04-03T02:35:02;1.80;99.90
23259;DHT22;11798;51.528;7.240;2023-04-03T02:37:28;1.80;99.90
23259;DHT22;11798;51.528;7.240;2023-04-03T02:39:53;1.80;99.90
23259;DHT22;11798;51.528;7.240;2023-04-03T02:42:19;1.90;99.90
23259;DHT22;11798;51.528;7.240;2023-04-03T02:44:44;1.90;99.90
23259;DHT22;11798;51.528;7.240;2023-04-03T02:47:10;1.80;99.90
23259;DHT22;11798;51.528;7.240;2023-04-03T02:49:35;1.80;99.90
23259;DHT22;11798;51.528;7.240;2023-04-03T02:52:01;1.80;99.90
23259;DHT22;11798;51.528;7.240;2023-04-03T02:54:27;1.80;99.90
23259;DHT22;11798;51.528;7.240;2023-04-03T02:56:56;1.80;99.90
23259;DHT22;11798;51.528;7.240;2023-04-03T02:59:21;1.70;99.90
23259;DHT22;11798;51.528;7.240;2023-04-03T03:01:47;1.70;99.90
23259;DHT22;11798;51.528;7.240;2023-04-03T03:04:12;1.80;99.90
23259;DHT22;11798;51.528;7.240;2023-04-03T03:06:38;1.70;99.90
23259;DHT22;11798;51.528;7.240;2023-04-03T03:09:04;1.70;99.90
23259;DHT22;11798;51.528;7.240;2023-04-03T03:11:31;1.70;99.90
23259;DHT22;11798;51.528;7.240;2023-04-03T03:13:56;1.60;99.90
23259;DHT22;11798;51.528;7.240;2023-04-03T03:16:22;1.60;99.90
23259;DHT22;11798;51.528;7.240;2023-04-03T03:18:47;1.70;99.90
23259;DHT22;11798;51.528;7.240;2023-04-03T03:21:13;1.70;99.90
23259;DHT22;11798;51.528;7.240;2023-04-03T03:23:38;1.60;99.90
23259;DHT22;11798;51.528;7.240;2023-04-03T03:26:05;1.60;99.90
23259;DHT22;11798;51.528;7.240;2023-04-03T03:28:31;1.60;99.90
23259;DHT22;11798;51.528;7.240;2023-04-03T03:30:57;1.50;99.90
23259;DHT22;11798;51.528;7.240;2023-04-03T03:33:23;1.50;99.90
23259;DHT22;11798;51.528;7.240;2023-04-03T03:35:48;1.50;99.90
23259;DHT22;11798;51.528;7.240;2023-04-03T03:38:15;1.50;99.90
23259;DHT22;11798;51.528;7.240;2023-04-03T03:40:40;1.50;99.90
23259;DHT22;11798;51.528;7.240;2023-04-03T03:43:06;1.60;99.90
23259;DHT22;11798;51.528;7.240;2023-04-03T03:45:31;1.60;99.90
23259;DHT22;11798;51.528;7.240;2023-04-03T03:47:57;1.60;99.90
23259;DHT22;11798;51.528;7.240;2023-04-03T03:50:22;1.60;99.90
23259;DHT22;11798;51.528;7.240;2023-04-03T03:52:48;1.60;99.90
23259;DHT22;11798;51.528;7.240;2023-04-03T03:55:13;1.50;99.90
23259;DHT22;11798;51.528;7.240;2023-04-03T03:57:39;1.50;99.90
23259;DHT22;11798;51.528;7.240;2023-04-03T04:00:05;1.50;99.90
23259;DHT22;11798;51.528;7.240;2023-04-03T04:02:30;1.40;99.90
23259;DHT22;11798;51.528;7.240;2023-04-03T04:04:56;1.50;99.90
23259;DHT22;11798;51.528;7.240;2023-04-03T04:07:21;1.50;99.90
23259;DHT22;11798;51.528;7.240;2023-04-03T04:09:48;1.50;99.90
23259;DHT22;11798;51.528;7.240;2023-04-03T04:12:13;1.50;99.90
23259;DHT22;11798;51.528;7.240;2023-04-03T04:14:39;1.60;99.90
23259;DHT22;11798;51.528;7.240;2023-04-03T04:17:04;1.50;99.90
23259;DHT22;11798;51.528;7.240;2023-04-03T04:19:30;1.50;99.90
23259;DHT22;11798;51.528;7.240;2023-04-03T04:21:55;1.40;99.90
23259;DHT22;11798;51.528;7.240;2023-04-03T04:24:21;1.40;99.90
23259;DHT22;11798;51.528;7.240;2023-04-03T04:26:48;1.40;99.90
23259;DHT22;11798;51.528;7.240;2023-04-03T04:29:13;1.40;99.90
23259;DHT22;11798;51.528;7.240;2023-04-03T04:31:39;1.30;99.90
23259;DHT22;11798;51.528;7.240;2023-04-03T04:34:04;1.30;99.90
23259;DHT22;11798;51.528;7.240;2023-04-03T04:36:30;1.40;99.90
23259;DHT22;11798;51.528;7.240;2023-04-03T04:38:55;1.30;99.90
23259;DHT22;11798;51.528;7.240;2023-04-03T04:41:22;1.40;99.90
23259;DHT22;11798;51.528;7.240;2023-04-03T04:43:48;1.20;99.90
23259;DHT22;11798;51.528;7.240;2023-04-03T04:46:14;1.30;99.90
23259;DHT22;11798;51.528;7.240;2023-04-03T04:48:39;1.30;99.90
23259;DHT22;11798;51.528;7.240;2023-04-03T04:51:05;1.40;99.90
23259;DHT22;11798;51.528;7.240;2023-04-03T04:53:31;1.40;99.90
23259;DHT22;11798;51.528;7.240;2023-04-03T04:55:56;1.30;99.90
23259;DHT22;11798;51.528;7.240;2023-04-03T04:58:22;1.40;99.90
23259;DHT22;11798;51.528;7.240;2023-04-03T05:00:47;1.30;99.90
23259;DHT22;11798;51.528;7.240;2023-04-03T05:03:13;1.30;99.90
23259;DHT22;11798;51.528;7.240;2023-04-03T05:05:39;1.20;99.90
23259;DHT22;11798;51.528;7.240;2023-04-03T05:08:04;1.10;99.90
23259;DHT22;11798;51.528;7.240;2023-04-03T05:10:30;1.10;99.90
23259;DHT22;11798;51.528;7.240;2023-04-03T05:12:56;1.20;99.90
23259;DHT22;11798;51.528;7.240;2023-04-03T05:15:22;1.20;99.90
23259;DHT22;11798;51.528;7.240;2023-04-03T05:17:47;1.20;99.90
23259;DHT22;11798;51.528;7.240;2023-04-03T05:20:13;1.10;99.90
23259;DHT22;11798;51.528;7.240;2023-04-03T05:22:38;1.10;99.90
23259;DHT22;11798;51.528;7.240;2023-04-03T05:25:05;1.00;99.90
23259;DHT22;11798;51.528;7.240;2023-04-03T05:27:30;1.00;99.90
23259;DHT22;11798;51.528;7.240;2023-04-03T05:29:56;1.00;99.90
23259;DHT22;11798;51.528;7.240;2023-04-03T05:32:22;1.00;99.90
23259;DHT22;11798;51.528;7.240;2023-04-03T05:34:47;1.00;99.90
23259;DHT22;11798;51.528;7.240;2023-04-03T05:37:13;0.90;99.90
23259;DHT22;11798;51.528;7.240;2023-04-03T05:39:38;1.00;99.90
23259;DHT22;11798;51.528;7.240;2023-04-03T05:42:06;1.00;99.90
23259;DHT22;11798;51.528;7.240;2023-04-03T05:44:32;1.00;99.90
23259;DHT22;11798;51.528;7.240;2023-04-03T05:46:57;1.00;99.90
23259;DHT22;11798;51.528;7.240;2023-04-03T05:49:23;1.00;99.90
23259;DHT22;11798;51.528;7.240;2023-04-03T05:51:48;1.00;99.90
23259;DHT22;11798;51.528;7.240;2023-04-03T05:56:43;1.00;99.90
23259;DHT22;11798;51.528;7.240;2023-04-03T05:59:08;1.00;99.90
23259;DHT22;11798;51.528;7.240;2023-04-03T06:01:34;1.00;99.90
23259;DHT22;11798;51.528;7.240;2023-04-03T06:04:00;1.10;99.90
23259;DHT22;11798;51.528;7.240;2023-04-03T06:06:26;1.10;99.90
23259;DHT22;11798;51.528;7.240;2023-04-03T06:08:51;1.20;99.90
23259;DHT22;11798;51.528;7.240;2023-04-03T06:11:17;1.10;99.90
23259;DHT22;11798;51.528;7.240;2023-04-03T06:13:42;1.20;99.90
23259;DHT22;11798;51.528;7.240;2023-04-03T06:16:10;1.20;99.90
23259;DHT22;11798;51.528;7.240;2023-04-03T06:18:37;1.10;99.90
23259;DHT22;11798;51.528;7.240;2023-04-03T06:21:02;1.20;99.90
23259;DHT22;11798;51.528;7.240;2023-04-03T06:23:28;1.20;99.90
23259;DHT22;11798;51.528;7.240;2023-04-03T06:25:54;1.30;99.90
23259;DHT22;11798;51.528;7.240;2023-04-03T06:28:19;1.40;99.90
23259;DHT22;11798;51.528;7.240;2023-04-03T06:30:45;1.50;99.90
23259;DHT22;11798;51.528;7.240;2023-04-03T06:33:11;1.60;99.90
23259;DHT22;11798;51.528;7.240;2023-04-03T06:35:36;1.70;99.90
23259;DHT22;11798;51.528;7.240;2023-04-03T06:38:03;1.70;99.90
23259;DHT22;11798;51.528;7.240;2023-04-03T06:40:34;1.70;99.90
23259;DHT22;11798;51.528;7.240;2023-04-03T06:43:00;1.70;99.90
23259;DHT22;11798;51.528;7.240;2023-04-03T06:45:25;1.70;99.90
23259;DHT22;11798;51.528;7.240;2023-04-03T06:47:51;1.80;99.90
23259;DHT22;11798;51.528;7.240;2023-04-03T06:50:17;2.00;99.90
23259;DHT22;11798;51.528;7.240;2023-04-03T06:52:42;2.00;99.90
23259;DHT22;11798;51.528;7.240;2023-04-03T06:55:08;2.00;99.90
23259;DHT22;11798;51.528;7.240;2023-04-03T06:57:34;2.00;99.90
23259;DHT22;11798;51.528;7.240;2023-04-03T07:00:00;2.00;99.90
23259;DHT22;11798;51.528;7.240;2023-04-03T07:02:26;2.00;99.90
23259;DHT22;11798;51.528;7.240;2023-04-03T07:04:52;2.00;99.90
23259;DHT22;11798;51.528;7.240;2023-04-03T07:07:17;2.10;99.90
23259;DHT22;11798;51.528;7.240;2023-04-03T07:09:43;2.20;99.90
23259;DHT22;11798;51.528;7.240;2023-04-03T07:12:08;2.40;99.90
23259;DHT22;11798;51.528;7.240;2023-04-03T07:14:34;2.20;99.90
23259;DHT22;11798;51.528;7.240;2023-04-03T07:16:59;2.20;99.90
23259;DHT22;11798;51.528;7.240;2023-04-03T07:19:25;2.30;99.90
23259;DHT22;11798;51.528;7.240;2023-04-03T07:21:53;2.30;99.90
23259;DHT22;11798;51.528;7.240;2023-04-03T07:24:18;2.30;99.90
23259;DHT22;11798;51.528;7.240;2023-04-03T07:26:44;2.50;99.90
23259;DHT22;11798;51.528;7.240;2023-04-03T07:29:10;2.50;99.90
23259;DHT22;11798;51.528;7.240;2023-04-03T07:31:36;2.60;99.90
23259;DHT22;11798;51.528;7.240;2023-04-03T07:34:02;2.60;99.90
23259;DHT22;11798;51.528;7.240;2023-04-03T07:36:27;2.70;99.90
23259;DHT22;11798;51.528;7.240;2023-04-03T07:38:53;2.70;99.90
23259;DHT22;11798;51.528;7.240;2023-04-03T07:41:19;2.90;99.90
23259;DHT22;11798;51.528;7.240;2023-04-03T07:43:46;2.80;99.90
23259;DHT22;11798;51.528;7.240;2023-04-03T07:46:12;2.90;99.90
23259;DHT22;11798;51.528;7.240;2023-04-03T07:48:38;3.00;99.90
23259;DHT22;11798;51.528;7.240;2023-04-03T07:51:03;3.00;99.90
23259;DHT22;11798;51.528;7.240;2023-04-03T07:53:29;3.00;99.90
23259;DHT22;11798;51.528;7.240;2023-04-03T07:55:56;3.10;99.90
23259;DHT22;11798;51.528;7.240;2023-04-03T07:58:22;3.10;99.90
23259;DHT22;11798;51.528;7.240;2023-04-03T08:00:48;3.10;99.90
23259;DHT22;11798;51.528;7.240;2023-04-03T08:03:13;3.30;99.90
23259;DHT22;11798;51.528;7.240;2023-04-03T08:05:43;3.40;99.90
23259;DHT22;11798;51.528;7.240;2023-04-03T08:08:09;3.30;99.90
23259;DHT22;11798;51.528;7.240;2023-04-03T08:10:35;3.40;99.90
23259;DHT22;11798;51.528;7.240;2023-04-03T08:13:01;3.40;99.90
23259;DHT22;11798;51.528;7.240;2023-04-03T08:15:27;3.50;99.90
23259;DHT22;11798;51.528;7.240;2023-04-03T08:17:53;3.60;99.90
23259;DHT22;11798;51.528;7.240;2023-04-03T08:20:18;3.60;99.90
23259;DHT22;11798;51.528;7.240;2023-04-03T08:22:44;3.40;99.90
23259;DHT22;11798;51.528;7.240;2023-04-03T08:25:09;3.50;99.90
23259;DHT22;11798;51.528;7.240;2023-04-03T08:27:35;3.60;99.90
23259;DHT22;11798;51.528;7.240;2023-04-03T08:30:01;3.70;99.90
23259;DHT22;11798;51.528;7.240;2023-04-03T08:32:26;3.70;99.90
23259;DHT22;11798;51.528;7.240;2023-04-03T08:34:52;3.80;99.90
23259;DHT22;11798;51.528;7.240;2023-04-03T08:37:17;3.90;99.90
23259;DHT22;11798;51.528;7.240;2023-04-03T08:39:44;4.00;99.90
23259;DHT22;11798;51.528;7.240;2023-04-03T08:42:35;4.20;99.90
23259;DHT22;11798;51.528;7.240;2023-04-03T08:50:04;4.30;99.90
23259;DHT22;11798;51.528;7.240;2023-04-03T08:52:47;4.20;99.90
23259;DHT22;11798;51.528;7.240;2023-04-03T08:57:40;4.30;99.90
23259;DHT22;11798;51.528;7.240;2023-04-03T09:02:52;4.20;99.90
23259;DHT22;11798;51.528;7.240;2023-04-03T09:07:57;4.50;99.90
23259;DHT22;11798;51.528;7.240;2023-04-03T09:10:27;4.50;99.90
23259;DHT22;11798;51.528;7.240;2023-04-03T09:12:57;4.60;99.90
23259;DHT22;11798;51.528;7.240;2023-04-03T09:15:24;4.80;99.90
23259;DHT22;11798;51.528;7.240;2023-04-03T09:22:45;5.00;99.90
23259;DHT22;11798;51.528;7.240;2023-04-03T09:25:44;5.10;99.90
23259;DHT22;11798;51.528;7.240;2023-04-03T09:28:03;5.10;99.90
23259;DHT22;11798;51.528;7.240;2023-04-03T09:30:29;5.20;99.90
23259;DHT22;11798;51.528;7.240;2023-04-03T09:32:55;5.10;99.90
23259;DHT22;11798;51.528;7.240;2023-04-03T09:37:50;5.30;99.90
23259;DHT22;11798;51.528;7.240;2023-04-03T09:42:55;5.40;99.90
23259;DHT22;11798;51.528;7.240;2023-04-03T09:45:24;5.20;99.90
23259;DHT22;11798;51.528;7.240;2023-04-03T09:47:52;5.30;99.90
23259;DHT22;11798;51.528;7.240;2023-04-03T09:50:28;5.50;99.90
23259;DHT22;11798;51.528;7.240;2023-04-03T09:52:54;5.60;99.90
23259;DHT22;11798;51.528;7.240;2023-04-03T09:55:25;5.60;99.90
23259;DHT22;11798;51.528;7.240;2023-04-03T09:57:56;5.60;99.90
23259;DHT22;11798;51.528;7.240;2023-04-03T10:00:27;5.60;99.90
23259;DHT22;11798;51.528;7.240;2023-04-03T10:02:54;5.70;99.90
23259;DHT22;11798;51.528;7.240;2023-04-03T10:05:40;5.70;99.90
23259;DHT22;11798;51.528;7.240;2023-04-03T10:10:34;5.60;99.90
23259;DHT22;11798;51.528;7.240;2023-04-03T10:13:09;5.70;99.90
23259;DHT22;11798;51.528;7.240;2023-04-03T10:15:38;5.70;99.90
23259;DHT22;11798;51.528;7.240;2023-04-03T10:18:06;5.80;99.90
23259;DHT22;11798;51.528;7.240;2023-04-03T10:20:46;5.80;99.90
23259;DHT22;11798;51.528;7.240;2023-04-03T10:26:15;6.00;99.90
23259;DHT22;11798;51.528;7.240;2023-04-03T10:28:33;6.00;99.90
23259;DHT22;11798;51.528;7.240;2023-04-03T10:38:54;6.20;99.90
23259;DHT22;11798;51.528;7.240;2023-04-03T10:46:27;6.50;99.90
23259;DHT22;11798;51.528;7.240;2023-04-03T10:56:48;6.40;99.90
23259;DHT22;11798;51.528;7.240;2023-04-03T11:01:44;6.60;99.90
23259;DHT22;11798;51.528;7.240;2023-04-03T11:04:10;6.60;99.90
23259;DHT22;11798;51.528;7.240;2023-04-03T11:06:44;6.40;99.90
23259;DHT22;11798;51.528;7.240;2023-04-03T11:09:15;6.50;99.90
23259;DHT22;11798;51.528;7.240;2023-04-03T11:11:42;6.50;99.90
23259;DHT22;11798;51.528;7.240;2023-04-03T11:16:42;6.70;99.90
23259;DHT22;11798;51.528;7.240;2023-04-03T11:19:11;6.50;99.90
23259;DHT22;11798;51.528;7.240;2023-04-03T11:24:25;6.80;99.90
23259;DHT22;11798;51.528;7.240;2023-04-03T11:26:52;6.70;99.90
23259;DHT22;11798;51.528;7.240;2023-04-03T11:29:20;6.80;99.90
23259;DHT22;11798;51.528;7.240;2023-04-03T11:36:54;6.80;99.90
23259;DHT22;11798;51.528;7.240;2023-04-03T11:39:34;6.90;99.90
23259;DHT22;11798;51.528;7.240;2023-04-03T11:43:06;6.90;99.90
23259;DHT22;11798;51.528;7.240;2023-04-03T11:47:44;7.00;99.90
23259;DHT22;11798;51.528;7.240;2023-04-03T11:52:58;7.00;99.90
23259;DHT22;11798;51.528;7.240;2023-04-03T12:13:42;7.30;99.90
23259;DHT22;11798;51.528;7.240;2023-04-03T12:24:23;7.30;99.90
23259;DHT22;11798;51.528;7.240;2023-04-03T12:26:50;7.40;99.90
23259;DHT22;11798;51.528;7.240;2023-04-03T12:31:46;7.40;99.90
23259;DHT22;11798;51.528;7.240;2023-04-03T12:35:03;7.50;99.90
23259;DHT22;11798;51.528;7.240;2023-04-03T12:37:02;7.60;99.90
23259;DHT22;11798;51.528;7.240;2023-04-03T12:42:04;7.50;99.90
23259;DHT22;11798;51.528;7.240;2023-04-03T12:44:38;7.40;99.90
23259;DHT22;11798;51.528;7.240;2023-04-03T12:47:15;7.60;99.90
23259;DHT22;11798;51.528;7.240;2023-04-03T12:49:43;7.50;99.90
23259;DHT22;11798;51.528;7.240;2023-04-03T12:52:52;7.40;99.90
23259;DHT22;11798;51.528;7.240;2023-04-03T12:54:59;7.50;99.90
23259;DHT22;11798;51.528;7.240;2023-04-03T12:57:25;7.50;99.90
23259;DHT22;11798;51.528;7.240;2023-04-03T12:59:54;7.60;99.90
23259;DHT22;11798;51.528;7.240;2023-04-03T13:02:21;7.50;99.90
23259;DHT22;11798;51.528;7.240;2023-04-03T13:04:48;7.50;99.90
23259;DHT22;11798;51.528;7.240;2023-04-03T13:07:25;7.40;99.90
23259;DHT22;11798;51.528;7.240;2023-04-03T13:10:27;7.40;99.90
23259;DHT22;11798;51.528;7.240;2023-04-03T13:12:50;7.50;99.90
23259;DHT22;11798;51.528;7.240;2023-04-03T13:17:44;7.50;99.90
23259;DHT22;11798;51.528;7.240;2023-04-03T13:20:31;7.60;99.90
23259;DHT22;11798;51.528;7.240;2023-04-03T13:23:00;7.60;99.90
23259;DHT22;11798;51.528;7.240;2023-04-03T13:25:27;7.50;99.90
23259;DHT22;11798;51.528;7.240;2023-04-03T13:27:53;7.50;99.90
23259;DHT22;11798;51.528;7.240;2023-04-03T13:30:27;7.50;99.90
23259;DHT22;11798;51.528;7.240;2023-04-03T13:32:54;7.60;99.90
23259;DHT22;11798;51.528;7.240;2023-04-03T13:37:58;7.60;99.90
23259;DHT22;11798;51.528;7.240;2023-04-03T13:40:24;7.60;99.90
23259;DHT22;11798;51.528;7.240;2023-04-03T13:43:06;7.80;99.90
23259;DHT22;11798;51.528;7.240;2023-04-03T13:45:42;7.60;99.90
23259;DHT22;11798;51.528;7.240;2023-04-03T13:48:19;7.60;99.90
23259;DHT22;11798;51.528;7.240;2023-04-03T13:53:19;7.50;99.90
23259;DHT22;11798;51.528;7.240;2023-04-03T13:56:00;7.40;99.90
23259;DHT22;11798;51.528;7.240;2023-04-03T13:58:30;7.40;99.90
23259;DHT22;11798;51.528;7.240;2023-04-03T14:01:00;7.40;99.90
23259;DHT22;11798;51.528;7.240;2023-04-03T14:05:52;7.50;99.90
23259;DHT22;11798;51.528;7.240;2023-04-03T14:08:18;7.50;99.90
23259;DHT22;11798;51.528;7.240;2023-04-03T14:10:43;7.60;99.90
23259;DHT22;11798;51.528;7.240;2023-04-03T14:13:11;7.60;99.90
23259;DHT22;11798;51.528;7.240;2023-04-03T14:15:37;7.70;99.90
23259;DHT22;11798;51.528;7.240;2023-04-03T14:18:02;7.50;99.90
23259;DHT22;11798;51.528;7.240;2023-04-03T14:20:28;7.60;99.90
23259;DHT22;11798;51.528;7.240;2023-04-03T14:22:54;7.60;99.90
23259;DHT22;11798;51.528;7.240;2023-04-03T14:25:20;7.60;99.90
23259;DHT22;11798;51.528;7.240;2023-04-03T14:27:47;7.50;99.90
23259;DHT22;11798;51.528;7.240;2023-04-03T14:30:17;7.60;99.90
23259;DHT22;11798;51.528;7.240;2023-04-03T14:32:43;7.60;99.90
23259;DHT22;11798;51.528;7.240;2023-04-03T14:35:09;7.70;99.90
23259;DHT22;11798;51.528;7.240;2023-04-03T14:37:35;7.70;99.90
23259;DHT22;11798;51.528;7.240;2023-04-03T14:40:01;7.80;99.90
23259;DHT22;11798;51.528;7.240;2023-04-03T14:42:30;7.50;99.90
23259;DHT22;11798;51.528;7.240;2023-04-03T14:44:56;7.50;99.90
23259;DHT22;11798;51.528;7.240;2023-04-03T14:47:23;7.60;99.90
23259;DHT22;11798;51.528;7.240;2023-04-03T14:49:49;7.80;99.90
23259;DHT22;11798;51.528;7.240;2023-04-03T14:52:25;7.80;99.90
23259;DHT22;11798;51.528;7.240;2023-04-03T14:54:51;7.90;99.90
23259;DHT22;11798;51.528;7.240;2023-04-03T14:57:17;7.90;99.90
23259;DHT22;11798;51.528;7.240;2023-04-03T14:59:44;7.80;99.90
23259;DHT22;11798;51.528;7.240;2023-04-03T15:04:47;8.00;99.90
23259;DHT22;11798;51.528;7.240;2023-04-03T15:07:13;8.20;99.90
23259;DHT22;11798;51.528;7.240;2023-04-03T15:09:38;8.30;99.90
23259;DHT22;11798;51.528;7.240;2023-04-03T15:12:04;8.40;99.90
23259;DHT22;11798;51.528;7.240;2023-04-03T15:14:29;8.50;99.90
23259;DHT22;11798;51.528;7.240;2023-04-03T15:16:55;8.60;99.90
23259;DHT22;11798;51.528;7.240;2023-04-03T15:19:20;8.70;99.90
23259;DHT22;11798;51.528;7.240;2023-04-03T15:21:46;8.80;99.90
23259;DHT22;11798;51.528;7.240;2023-04-03T15:24:11;8.80;99.90
23259;DHT22;11798;51.528;7.240;2023-04-03T15:26:37;8.90;99.90
23259;DHT22;11798;51.528;7.240;2023-04-03T15:29:03;8.70;99.90
23259;DHT22;11798;51.528;7.240;2023-04-03T15:31:28;8.80;99.90
23259;DHT22;11798;51.528;7.240;2023-04-03T15:33:54;9.20;99.90
23259;DHT22;11798;51.528;7.240;2023-04-03T15:36:20;9.30;99.90
23259;DHT22;11798;51.528;7.240;2023-04-03T15:38:45;9.50;99.90
23259;DHT22;11798;51.528;7.240;2023-04-03T15:41:11;10.10;99.90
23259;DHT22;11798;51.528;7.240;2023-04-03T15:43:36;9.90;99.90
23259;DHT22;11798;51.528;7.240;2023-04-03T15:46:02;10.30;99.90
23259;DHT22;11798;51.528;7.240;2023-04-03T15:48:28;10.90;99.90
23259;DHT22;11798;51.528;7.240;2023-04-03T15:50:54;11.20;99.90
23259;DHT22;11798;51.528;7.240;2023-04-03T15:53:20;11.00;99.90
23259;DHT22;11798;51.528;7.240;2023-04-03T15:55:45;10.80;99.90
23259;DHT22;11798;51.528;7.240;2023-04-03T15:58:11;10.90;99.90
23259;DHT22;11798;51.528;7.240;2023-04-03T16:00:37;11.00;99.90
23259;DHT22;11798;51.528;7.240;2023-04-03T16:03:15;11.10;99.90
23259;DHT22;11798;51.528;7.240;2023-04-03T16:05:41;11.60;99.90
23259;DHT22;11798;51.528;7.240;2023-04-03T16:08:07;11.60;99.90
23259;DHT22;11798;51.528;7.240;2023-04-03T16:10:35;12.30;99.90
23259;DHT22;11798;51.528;7.240;2023-04-03T16:13:01;13.10;99.90
23259;DHT22;11798;51.528;7.240;2023-04-03T16:15:27;13.60;99.90
23259;DHT22;11798;51.528;7.240;2023-04-03T16:17:54;11.40;99.90
23259;DHT22;11798;51.528;7.240;2023-04-03T16:20:20;10.60;99.90
23259;DHT22;11798;51.528;7.240;2023-04-03T16:22:47;10.20;99.90
23259;DHT22;11798;51.528;7.240;2023-04-03T16:25:13;9.20;99.90
23259;DHT22;11798;51.528;7.240;2023-04-03T16:27:39;9.00;99.90
23259;DHT22;11798;51.528;7.240;2023-04-03T16:30:06;8.70;99.90
23259;DHT22;11798;51.528;7.240;2023-04-03T16:32:32;8.70;99.90
23259;DHT22;11798;51.528;7.240;2023-04-03T16:34:57;8.40;99.90
23259;DHT22;11798;51.528;7.240;2023-04-03T16:37:23;8.10;99.90
23259;DHT22;11798;51.528;7.240;2023-04-03T16:39:49;7.90;99.90
23259;DHT22;11798;51.528;7.240;2023-04-03T16:42:14;8.00;99.90
23259;DHT22;11798;51.528;7.240;2023-04-03T16:44:40;7.90;99.90
23259;DHT22;11798;51.528;7.240;2023-04-03T16:47:06;7.90;99.90
23259;DHT22;11798;51.528;7.240;2023-04-03T16:49:33;7.60;99.90
23259;DHT22;11798;51.528;7.240;2023-04-03T16:51:59;7.50;99.90
23259;DHT22;11798;51.528;7.240;2023-04-03T16:54:26;7.40;99.90
23259;DHT22;11798;51.528;7.240;2023-04-03T16:56:51;7.40;99.90
23259;DHT22;11798;51.528;7.240;2023-04-03T16:59:17;7.20;99.90
23259;DHT22;11798;51.528;7.240;2023-04-03T17:01:42;7.10;99.90
23259;DHT22;11798;51.528;7.240;2023-04-03T17:04:08;7.10;99.90
23259;DHT22;11798;51.528;7.240;2023-04-03T17:06:33;7.10;99.90
23259;DHT22;11798;51.528;7.240;2023-04-03T17:08:59;7.10;99.90
23259;DHT22;11798;51.528;7.240;2023-04-03T17:11:25;7.00;99.90
23259;DHT22;11798;51.528;7.240;2023-04-03T17:13:52;7.00;99.90
23259;DHT22;11798;51.528;7.240;2023-04-03T17:16:20;6.90;99.90
23259;DHT22;11798;51.528;7.240;2023-04-03T17:18:46;6.80;99.90
23259;DHT22;11798;51.528;7.240;2023-04-03T17:21:13;6.80;99.90
23259;DHT22;11798;51.528;7.240;2023-04-03T17:23:39;6.70;99.90
23259;DHT22;11798;51.528;7.240;2023-04-03T17:26:08;6.70;99.90
23259;DHT22;11798;51.528;7.240;2023-04-03T17:28:33;6.60;99.90
23259;DHT22;11798;51.528;7.240;2023-04-03T17:31:05;6.60;99.90
23259;DHT22;11798;51.528;7.240;2023-04-03T17:33:34;6.40;99.90
23259;DHT22;11798;51.528;7.240;2023-04-03T17:36:03;6.40;99.90
23259;DHT22;11798;51.528;7.240;2023-04-03T17:38:32;6.40;99.90
23259;DHT22;11798;51.528;7.240;2023-04-03T17:40:59;6.40;99.90
23259;DHT22;11798;51.528;7.240;2023-04-03T17:43:30;6.30;99.90
23259;DHT22;11798;51.528;7.240;2023-04-03T17:46:00;6.30;99.90